sensor_id;sensor_type;location;lat;lon;timestamp;temperature;humidity
17178;DHT22;8704;52.006;4.374;2023-08-06T00:01:17;15.60;1.00
17178;DHT22;8704;52.006;4.374;2023-08-06T00:03:49;15.60;1.00
17178;DHT22;8704;52.006;4.374;2023-08-06T00:06:18;15.60;1.00
17178;DHT22;8704;52.006;4.374;2023-08-06T00:08:46;15.60;18.60
17178;DHT22;8704;52.006;4.374;2023-08-06T00:11:14;15.60;99.90
17178;DHT22;8704;52.006;4.374;2023-08-06T00:13:42;15.60;99.90
17178;DHT22;8704;52.006;4.374;2023-08-06T00:16:11;15.60;99.90
17178;DHT22;8704;52.006;4.374;2023-08-06T00:18:39;15.60;99.90
17178;DHT22;8704;52.006;4.374;2023-08-06T00:21:09;15.50;99.90
17178;DHT22;8704;52.006;4.374;2023-08-06T00:23:39;15.50;99.90
17178;DHT22;8704;52.006;4.374;2023-08-06T00:26:07;15.60;99.90
17178;DHT22;8704;52.006;4.374;2023-08-06T00:28:35;15.50;99.90
17178;DHT22;8704;52.006;4.374;2023-08-06T00:31:04;15.60;99.90
17178;DHT22;8704;52.006;4.374;2023-08-06T00:33:32;15.60;99.90
17178;DHT22;8704;52.006;4.374;2023-08-06T00:36:00;15.50;99.90
17178;DHT22;8704;52.006;4.374;2023-08-06T00:38:29;15.50;1.00
17178;DHT22;8704;52.006;4.374;2023-08-06T00:40:57;15.60;1.00
17178;DHT22;8704;52.006;4.374;2023-08-06T00:43:25;15.60;1.00
17178;DHT22;8704;52.006;4.374;2023-08-06T00:45:54;15.50;1.00
17178;DHT22;8704;52.006;4.374;2023-08-06T00:48:22;15.50;99.90
17178;DHT22;8704;52.006;4.374;2023-08-06T00:50:51;15.50;1.00
17178;DHT22;8704;52.006;4.374;2023-08-06T00:53:19;15.60;1.00
17178;DHT22;8704;52.006;4.374;2023-08-06T00:55:48;15.50;1.00
17178;DHT22;8704;52.006;4.374;2023-08-06T00:58:16;15.50;1.00
17178;DHT22;8704;52.006;4.374;2023-08-06T01:00:45;15.60;1.00
17178;DHT22;8704;52.006;4.374;2023-08-06T01:03:13;15.50;1.00
17178;DHT22;8704;52.006;4.374;2023-08-06T01:05:42;15.50;1.00
17178;DHT22;8704;52.006;4.374;2023-08-06T01:08:23;15.50;1.00
17178;DHT22;8704;52.006;4.374;2023-08-06T01:11:05;15.60;1.00
17178;DHT22;8704;52.006;4.374;2023-08-06T01:13:42;15.50;1.00
17178;DHT22;8704;52.006;4.374;2023-08-06T01:16:11;15.50;1.00
17178;DHT22;8704;52.006;4.374;2023-08-06T01:18:39;15.60;1.00
17178;DHT22;8704;52.006;4.374;2023-08-06T01:21:10;15.60;1.00
17178;DHT22;8704;52.006;4.374;2023-08-06T01:23:38;15.50;1.00
17178;DHT22;8704;52.006;4.374;2023-08-06T01:26:11;15.60;1.00
17178;DHT22;8704;52.006;4.374;2023-08-06T01:28:48;15.50;1.00
17178;DHT22;8704;52.006;4.374;2023-08-06T01:31:21;15.50;1.00
17178;DHT22;8704;52.006;4.374;2023-08-06T01:33:51;15.50;1.00
17178;DHT22;8704;52.006;4.374;2023-08-06T01:36:22;15.60;1.00
17178;DHT22;8704;52.006;4.374;2023-08-06T01:38:51;15.50;1.00
17178;DHT22;8704;52.006;4.374;2023-08-06T01:41:20;15.50;1.00
17178;DHT22;8704;52.006;4.374;2023-08-06T01:43:49;15.50;1.00
17178;DHT22;8704;52.006;4.374;2023-08-06T01:46:17;15.50;1.00
17178;DHT22;8704;52.006;4.374;2023-08-06T01:48:45;15.50;1.00
17178;DHT22;8704;52.006;4.374;2023-08-06T01:51:13;15.50;1.00
17178;DHT22;8704;52.006;4.374;2023-08-06T01:53:43;15.50;1.00
17178;DHT22;8704;52.006;4.374;2023-08-06T01:56:11;15.50;1.00
17178;DHT22;8704;52.006;4.374;2023-08-06T01:58:39;15.50;1.00
17178;DHT22;8704;52.006;4.374;2023-08-06T02:01:07;15.50;1.00
17178;DHT22;8704;52.006;4.374;2023-08-06T02:03:35;15.50;1.00
17178;DHT22;8704;52.006;4.374;2023-08-06T02:06:03;15.50;1.00
17178;DHT22;8704;52.006;4.374;2023-08-06T02:08:31;15.50;1.00
17178;DHT22;8704;52.006;4.374;2023-08-06T02:11:01;15.50;99.90
17178;DHT22;8704;52.006;4.374;2023-08-06T02:13:29;15.50;99.90
17178;DHT22;8704;52.006;4.374;2023-08-06T02:15:57;15.50;99.90
17178;DHT22;8704;52.006;4.374;2023-08-06T02:18:25;15.50;99.90
17178;DHT22;8704;52.006;4.374;2023-08-06T02:20:56;15.50;99.90
17178;DHT22;8704;52.006;4.374;2023-08-06T02:23:25;15.50;99.90
17178;DHT22;8704;52.006;4.374;2023-08-06T02:25:58;15.50;99.90
17178;DHT22;8704;52.006;4.374;2023-08-06T02:28:28;15.50;99.90
17178;DHT22;8704;52.006;4.374;2023-08-06T02:30:56;15.50;99.90
17178;DHT22;8704;52.006;4.374;2023-08-06T02:33:24;15.40;99.90
17178;DHT22;8704;52.006;4.374;2023-08-06T02:35:59;15.50;99.90
17178;DHT22;8704;52.006;4.374;2023-08-06T02:38:27;15.40;99.90
17178;DHT22;8704;52.006;4.374;2023-08-06T02:40:56;15.40;99.90
17178;DHT22;8704;52.006;4.374;2023-08-06T02:43:24;15.40;99.90
17178;DHT22;8704;52.006;4.374;2023-08-06T02:45:56;15.40;99.90
17178;DHT22;8704;52.006;4.374;2023-08-06T02:48:25;15.40;99.90
17178;DHT22;8704;52.006;4.374;2023-08-06T02:50:57;15.40;99.90
17178;DHT22;8704;52.006;4.374;2023-08-06T02:53:25;15.40;99.90
17178;DHT22;8704;52.006;4.374;2023-08-06T02:55:53;15.40;99.90
17178;DHT22;8704;52.006;4.374;2023-08-06T02:58:22;15.40;99.90
17178;DHT22;8704;52.006;4.374;2023-08-06T03:01:02;15.30;99.90
17178;DHT22;8704;52.006;4.374;2023-08-06T03:03:31;15.30;99.90
17178;DHT22;8704;52.006;4.374;2023-08-06T03:05:59;15.20;45.60
17178;DHT22;8704;52.006;4.374;2023-08-06T03:08:27;15.20;99.90
17178;DHT22;8704;52.006;4.374;2023-08-06T03:10:56;15.30;99.90
17178;DHT22;8704;52.006;4.374;2023-08-06T03:13:24;15.30;99.90
17178;DHT22;8704;52.006;4.374;2023-08-06T03:15:52;15.30;99.90
17178;DHT22;8704;52.006;4.374;2023-08-06T03:18:23;15.30;99.90
17178;DHT22;8704;52.006;4.374;2023-08-06T03:20:53;15.30;99.90
17178;DHT22;8704;52.006;4.374;2023-08-06T03:23:21;15.30;1.00
17178;DHT22;8704;52.006;4.374;2023-08-06T03:25:49;15.30;1.00
17178;DHT22;8704;52.006;4.374;2023-08-06T03:28:17;15.30;1.00
17178;DHT22;8704;52.006;4.374;2023-08-06T03:30:45;15.30;1.00
17178;DHT22;8704;52.006;4.374;2023-08-06T03:33:13;15.20;1.00
17178;DHT22;8704;52.006;4.374;2023-08-06T03:35:43;15.20;1.00
17178;DHT22;8704;52.006;4.374;2023-08-06T03:38:11;15.10;1.00
17178;DHT22;8704;52.006;4.374;2023-08-06T03:40:39;15.10;99.90
17178;DHT22;8704;52.006;4.374;2023-08-06T03:43:07;15.10;99.90
17178;DHT22;8704;52.006;4.374;2023-08-06T03:45:35;15.00;1.00
17178;DHT22;8704;52.006;4.374;2023-08-06T03:48:04;15.00;1.00
17178;DHT22;8704;52.006;4.374;2023-08-06T03:50:32;15.00;1.00
17178;DHT22;8704;52.006;4.374;2023-08-06T03:53:01;14.90;99.90
17178;DHT22;8704;52.006;4.374;2023-08-06T03:55:29;14.90;1.00
17178;DHT22;8704;52.006;4.374;2023-08-06T03:57:58;14.90;1.00
17178;DHT22;8704;52.006;4.374;2023-08-06T04:00:26;14.90;1.00
17178;DHT22;8704;52.006;4.374;2023-08-06T04:02:54;14.90;1.00
17178;DHT22;8704;52.006;4.374;2023-08-06T04:05:22;14.90;1.00
17178;DHT22;8704;52.006;4.374;2023-08-06T04:07:50;14.80;1.00
17178;DHT22;8704;52.006;4.374;2023-08-06T04:10:20;14.80;1.00
17178;DHT22;8704;52.006;4.374;2023-08-06T04:12:48;14.70;99.90
17178;DHT22;8704;52.006;4.374;2023-08-06T04:15:16;14.70;1.00
17178;DHT22;8704;52.006;4.374;2023-08-06T04:17:44;14.70;1.00
17178;DHT22;8704;52.006;4.374;2023-08-06T04:20:12;14.70;1.00
17178;DHT22;8704;52.006;4.374;2023-08-06T04:22:40;14.70;1.00
17178;DHT22;8704;52.006;4.374;2023-08-06T04:25:09;14.70;99.90
17178;DHT22;8704;52.006;4.374;2023-08-06T04:27:38;14.60;99.90
17178;DHT22;8704;52.006;4.374;2023-08-06T04:30:09;14.60;1.00
17178;DHT22;8704;52.006;4.374;2023-08-06T04:32:39;14.60;1.00
17178;DHT22;8704;52.006;4.374;2023-08-06T04:35:07;14.60;99.90
17178;DHT22;8704;52.006;4.374;2023-08-06T04:37:35;14.60;99.90
17178;DHT22;8704;52.006;4.374;2023-08-06T04:40:04;14.60;1.00
17178;DHT22;8704;52.006;4.374;2023-08-06T04:42:32;14.60;99.90
17178;DHT22;8704;52.006;4.374;2023-08-06T04:45:02;14.60;99.90
17178;DHT22;8704;52.006;4.374;2023-08-06T04:47:31;14.60;99.90
17178;DHT22;8704;52.006;4.374;2023-08-06T04:49:59;14.60;99.90
17178;DHT22;8704;52.006;4.374;2023-08-06T04:52:28;14.60;99.90
17178;DHT22;8704;52.006;4.374;2023-08-06T04:54:56;14.60;99.90
17178;DHT22;8704;52.006;4.374;2023-08-06T04:57:24;14.60;1.00
17178;DHT22;8704;52.006;4.374;2023-08-06T04:59:52;14.60;1.00
17178;DHT22;8704;52.006;4.374;2023-08-06T05:02:21;14.70;1.00
17178;DHT22;8704;52.006;4.374;2023-08-06T05:04:50;14.60;1.00
17178;DHT22;8704;52.006;4.374;2023-08-06T05:07:18;14.60;1.00
17178;DHT22;8704;52.006;4.374;2023-08-06T05:09:46;14.60;23.10
17178;DHT22;8704;52.006;4.374;2023-08-06T05:12:14;14.70;99.90
17178;DHT22;8704;52.006;4.374;2023-08-06T05:14:42;14.70;99.90
17178;DHT22;8704;52.006;4.374;2023-08-06T05:17:10;14.70;1.00
17178;DHT22;8704;52.006;4.374;2023-08-06T05:19:40;14.70;1.00
17178;DHT22;8704;52.006;4.374;2023-08-06T05:22:08;14.70;1.00
17178;DHT22;8704;52.006;4.374;2023-08-06T05:24:36;14.70;1.00
17178;DHT22;8704;52.006;4.374;2023-08-06T05:27:05;14.70;1.00
17178;DHT22;8704;52.006;4.374;2023-08-06T05:29:32;14.70;99.90
17178;DHT22;8704;52.006;4.374;2023-08-06T05:32:00;14.70;99.90
17178;DHT22;8704;52.006;4.374;2023-08-06T05:34:28;14.70;1.00
17178;DHT22;8704;52.006;4.374;2023-08-06T05:36:57;14.70;99.90
17178;DHT22;8704;52.006;4.374;2023-08-06T05:39:26;14.70;1.00
17178;DHT22;8704;52.006;4.374;2023-08-06T05:41:54;14.70;99.90
17178;DHT22;8704;52.006;4.374;2023-08-06T05:44:23;14.70;1.00
17178;DHT22;8704;52.006;4.374;2023-08-06T05:46:51;14.80;1.00
17178;DHT22;8704;52.006;4.374;2023-08-06T05:49:20;14.70;1.00
17178;DHT22;8704;52.006;4.374;2023-08-06T05:51:48;14.80;99.90
17178;DHT22;8704;52.006;4.374;2023-08-06T05:54:19;14.80;99.90
17178;DHT22;8704;52.006;4.374;2023-08-06T05:56:47;14.80;1.00
17178;DHT22;8704;52.006;4.374;2023-08-06T05:59:15;14.80;1.00
17178;DHT22;8704;52.006;4.374;2023-08-06T06:01:43;14.80;99.90
17178;DHT22;8704;52.006;4.374;2023-08-06T06:04:11;14.70;1.00
17178;DHT22;8704;52.006;4.374;2023-08-06T06:06:39;14.80;1.00
17178;DHT22;8704;52.006;4.374;2023-08-06T06:09:08;14.80;99.90
17178;DHT22;8704;52.006;4.374;2023-08-06T06:11:38;14.80;24.20
17178;DHT22;8704;52.006;4.374;2023-08-06T06:14:06;14.80;99.90
17178;DHT22;8704;52.006;4.374;2023-08-06T06:16:34;14.80;99.90
17178;DHT22;8704;52.006;4.374;2023-08-06T06:19:02;14.90;99.90
17178;DHT22;8704;52.006;4.374;2023-08-06T06:21:30;14.90;99.90
17178;DHT22;8704;52.006;4.374;2023-08-06T06:23:58;14.80;1.00
17178;DHT22;8704;52.006;4.374;2023-08-06T06:26:26;14.80;99.90
17178;DHT22;8704;52.006;4.374;2023-08-06T06:28:56;14.90;1.00
17178;DHT22;8704;52.006;4.374;2023-08-06T06:31:24;14.80;1.00
17178;DHT22;8704;52.006;4.374;2023-08-06T06:33:52;14.80;99.90
17178;DHT22;8704;52.006;4.374;2023-08-06T06:36:21;14.80;99.90
17178;DHT22;8704;52.006;4.374;2023-08-06T06:38:50;14.90;99.90
17178;DHT22;8704;52.006;4.374;2023-08-06T06:41:18;14.90;1.00
17178;DHT22;8704;52.006;4.374;2023-08-06T06:43:46;14.90;99.90
17178;DHT22;8704;52.006;4.374;2023-08-06T06:46:16;14.90;99.90
17178;DHT22;8704;52.006;4.374;2023-08-06T06:48:44;15.00;99.90
17178;DHT22;8704;52.006;4.374;2023-08-06T06:51:12;15.00;51.90
17178;DHT22;8704;52.006;4.374;2023-08-06T06:53:40;15.00;1.00
17178;DHT22;8704;52.006;4.374;2023-08-06T06:56:08;15.00;1.00
17178;DHT22;8704;52.006;4.374;2023-08-06T06:58:36;15.00;1.00
17178;DHT22;8704;52.006;4.374;2023-08-06T07:01:05;15.00;1.00
17178;DHT22;8704;52.006;4.374;2023-08-06T07:03:35;15.00;99.90
17178;DHT22;8704;52.006;4.374;2023-08-06T07:06:03;15.10;99.90
17178;DHT22;8704;52.006;4.374;2023-08-06T07:08:32;15.10;99.90
17178;DHT22;8704;52.006;4.374;2023-08-06T07:11:02;15.10;1.00
17178;DHT22;8704;52.006;4.374;2023-08-06T07:13:30;15.20;1.00
17178;DHT22;8704;52.006;4.374;2023-08-06T07:15:59;15.20;1.00
17178;DHT22;8704;52.006;4.374;2023-08-06T07:18:27;15.30;1.00
17178;DHT22;8704;52.006;4.374;2023-08-06T07:20:56;15.30;71.30
17178;DHT22;8704;52.006;4.374;2023-08-06T07:23:31;15.40;99.90
17178;DHT22;8704;52.006;4.374;2023-08-06T07:25:59;15.40;1.00
17178;DHT22;8704;52.006;4.374;2023-08-06T07:28:27;15.40;1.00
17178;DHT22;8704;52.006;4.374;2023-08-06T07:30:56;15.50;1.00
17178;DHT22;8704;52.006;4.374;2023-08-06T07:33:24;15.50;1.00
17178;DHT22;8704;52.006;4.374;2023-08-06T07:35:52;15.60;1.00
17178;DHT22;8704;52.006;4.374;2023-08-06T07:38:21;15.60;1.00
17178;DHT22;8704;52.006;4.374;2023-08-06T07:40:49;15.70;99.90
17178;DHT22;8704;52.006;4.374;2023-08-06T07:43:17;15.80;1.00
17178;DHT22;8704;52.006;4.374;2023-08-06T07:45:45;15.90;1.00
17178;DHT22;8704;52.006;4.374;2023-08-06T07:48:13;16.00;1.00
17178;DHT22;8704;52.006;4.374;2023-08-06T07:50:42;16.00;1.00
17178;DHT22;8704;52.006;4.374;2023-08-06T07:53:11;16.00;99.90
17178;DHT22;8704;52.006;4.374;2023-08-06T07:55:41;16.10;1.00
17178;DHT22;8704;52.006;4.374;2023-08-06T07:58:12;16.10;99.90
17178;DHT22;8704;52.006;4.374;2023-08-06T08:00:40;16.20;99.90
17178;DHT22;8704;52.006;4.374;2023-08-06T08:03:12;16.30;99.90
17178;DHT22;8704;52.006;4.374;2023-08-06T08:05:41;16.40;99.90
17178;DHT22;8704;52.006;4.374;2023-08-06T08:08:10;16.40;99.90
17178;DHT22;8704;52.006;4.374;2023-08-06T08:10:38;16.40;99.90
17178;DHT22;8704;52.006;4.374;2023-08-06T08:13:07;16.40;99.90
17178;DHT22;8704;52.006;4.374;2023-08-06T08:15:36;16.50;99.90
17178;DHT22;8704;52.006;4.374;2023-08-06T08:18:04;16.40;99.90
17178;DHT22;8704;52.006;4.374;2023-08-06T08:20:32;16.50;99.90
17178;DHT22;8704;52.006;4.374;2023-08-06T08:23:02;16.60;99.90
17178;DHT22;8704;52.006;4.374;2023-08-06T08:25:31;16.60;99.90
17178;DHT22;8704;52.006;4.374;2023-08-06T08:28:00;16.60;99.90
17178;DHT22;8704;52.006;4.374;2023-08-06T08:30:30;16.70;99.90
17178;DHT22;8704;52.006;4.374;2023-08-06T08:32:58;16.60;99.90
17178;DHT22;8704;52.006;4.374;2023-08-06T08:35:26;16.70;99.90
17178;DHT22;8704;52.006;4.374;2023-08-06T08:37:54;16.80;99.90
17178;DHT22;8704;52.006;4.374;2023-08-06T08:40:28;16.80;99.90
17178;DHT22;8704;52.006;4.374;2023-08-06T08:43:00;16.80;99.90
17178;DHT22;8704;52.006;4.374;2023-08-06T08:45:30;16.80;99.90
17178;DHT22;8704;52.006;4.374;2023-08-06T08:48:01;16.80;99.80
17178;DHT22;8704;52.006;4.374;2023-08-06T08:50:31;16.90;99.90
17178;DHT22;8704;52.006;4.374;2023-08-06T08:52:59;16.90;90.00
17178;DHT22;8704;52.006;4.374;2023-08-06T08:55:28;16.90;70.60
17178;DHT22;8704;52.006;4.374;2023-08-06T08:57:56;17.00;99.90
17178;DHT22;8704;52.006;4.374;2023-08-06T09:00:25;17.10;99.90
17178;DHT22;8704;52.006;4.374;2023-08-06T09:02:55;17.10;99.90
17178;DHT22;8704;52.006;4.374;2023-08-06T09:05:24;17.20;77.70
17178;DHT22;8704;52.006;4.374;2023-08-06T09:07:55;17.20;34.90
17178;DHT22;8704;52.006;4.374;2023-08-06T09:10:23;17.20;47.00
17178;DHT22;8704;52.006;4.374;2023-08-06T09:12:52;17.20;30.40
17178;DHT22;8704;52.006;4.374;2023-08-06T09:15:24;17.30;58.70
17178;DHT22;8704;52.006;4.374;2023-08-06T09:17:53;17.30;40.00
17178;DHT22;8704;52.006;4.374;2023-08-06T09:20:22;17.30;92.30
17178;DHT22;8704;52.006;4.374;2023-08-06T09:22:52;17.30;18.60
17178;DHT22;8704;52.006;4.374;2023-08-06T09:25:21;17.30;46.60
17178;DHT22;8704;52.006;4.374;2023-08-06T09:27:51;17.40;13.10
17178;DHT22;8704;52.006;4.374;2023-08-06T09:30:29;17.50;51.80
17178;DHT22;8704;52.006;4.374;2023-08-06T09:33:00;17.70;65.40
17178;DHT22;8704;52.006;4.374;2023-08-06T09:35:29;17.70;44.90
17178;DHT22;8704;52.006;4.374;2023-08-06T09:38:05;17.80;38.50
17178;DHT22;8704;52.006;4.374;2023-08-06T09:40:34;17.90;36.90
17178;DHT22;8704;52.006;4.374;2023-08-06T09:43:03;18.00;34.30
17178;DHT22;8704;52.006;4.374;2023-08-06T09:45:34;18.00;3.10
17178;DHT22;8704;52.006;4.374;2023-08-06T09:48:05;18.00;1.00
17178;DHT22;8704;52.006;4.374;2023-08-06T09:50:35;18.00;10.20
17178;DHT22;8704;52.006;4.374;2023-08-06T09:53:04;18.10;1.00
17178;DHT22;8704;52.006;4.374;2023-08-06T09:55:33;18.30;3.80
17178;DHT22;8704;52.006;4.374;2023-08-06T09:58:02;18.40;12.40
17178;DHT22;8704;52.006;4.374;2023-08-06T10:00:33;18.50;1.00
17178;DHT22;8704;52.006;4.374;2023-08-06T10:03:08;18.60;1.00
17178;DHT22;8704;52.006;4.374;2023-08-06T10:05:38;18.60;1.00
17178;DHT22;8704;52.006;4.374;2023-08-06T10:08:07;18.70;1.00
17178;DHT22;8704;52.006;4.374;2023-08-06T10:10:35;18.80;1.00
17178;DHT22;8704;52.006;4.374;2023-08-06T10:13:05;19.00;1.00
17178;DHT22;8704;52.006;4.374;2023-08-06T10:15:34;19.00;1.00
17178;DHT22;8704;52.006;4.374;2023-08-06T10:18:03;19.20;1.00
17178;DHT22;8704;52.006;4.374;2023-08-06T10:20:34;19.30;1.00
17178;DHT22;8704;52.006;4.374;2023-08-06T10:23:04;19.40;1.00
17178;DHT22;8704;52.006;4.374;2023-08-06T10:25:33;19.50;1.00
17178;DHT22;8704;52.006;4.374;2023-08-06T10:28:07;19.50;1.00
17178;DHT22;8704;52.006;4.374;2023-08-06T10:30:47;19.40;1.00
17178;DHT22;8704;52.006;4.374;2023-08-06T10:33:15;19.60;1.00
17178;DHT22;8704;52.006;4.374;2023-08-06T10:35:46;19.50;1.00
17178;DHT22;8704;52.006;4.374;2023-08-06T10:38:17;19.60;1.00
17178;DHT22;8704;52.006;4.374;2023-08-06T10:40:50;19.60;1.00
17178;DHT22;8704;52.006;4.374;2023-08-06T10:43:28;19.80;1.00
17178;DHT22;8704;52.006;4.374;2023-08-06T10:45:57;19.80;1.00
17178;DHT22;8704;52.006;4.374;2023-08-06T10:48:30;19.80;1.00
17178;DHT22;8704;52.006;4.374;2023-08-06T10:51:00;19.80;1.00
17178;DHT22;8704;52.006;4.374;2023-08-06T10:53:29;19.90;1.00
17178;DHT22;8704;52.006;4.374;2023-08-06T10:56:00;19.90;1.00
17178;DHT22;8704;52.006;4.374;2023-08-06T10:58:31;20.00;1.00
17178;DHT22;8704;52.006;4.374;2023-08-06T11:01:00;20.00;1.00
17178;DHT22;8704;52.006;4.374;2023-08-06T11:03:29;19.90;1.00
17178;DHT22;8704;52.006;4.374;2023-08-06T11:05:58;19.90;1.00
17178;DHT22;8704;52.006;4.374;2023-08-06T11:08:27;19.60;1.00
17178;DHT22;8704;52.006;4.374;2023-08-06T11:10:55;19.40;1.00
17178;DHT22;8704;52.006;4.374;2023-08-06T11:13:35;19.40;1.00
17178;DHT22;8704;52.006;4.374;2023-08-06T11:16:04;19.40;1.00
17178;DHT22;8704;52.006;4.374;2023-08-06T11:18:33;19.50;1.00
17178;DHT22;8704;52.006;4.374;2023-08-06T11:21:02;19.60;1.00
17178;DHT22;8704;52.006;4.374;2023-08-06T11:23:31;19.50;1.00
17178;DHT22;8704;52.006;4.374;2023-08-06T11:25:59;19.20;1.00
17178;DHT22;8704;52.006;4.374;2023-08-06T11:28:27;19.00;1.00
17178;DHT22;8704;52.006;4.374;2023-08-06T11:30:56;18.80;1.00
17178;DHT22;8704;52.006;4.374;2023-08-06T11:33:29;18.80;1.00
17178;DHT22;8704;52.006;4.374;2023-08-06T11:35:59;18.60;1.00
17178;DHT22;8704;52.006;4.374;2023-08-06T11:38:29;18.70;1.00
17178;DHT22;8704;52.006;4.374;2023-08-06T11:40:57;18.70;1.00
17178;DHT22;8704;52.006;4.374;2023-08-06T11:43:25;18.50;1.00
17178;DHT22;8704;52.006;4.374;2023-08-06T11:45:56;18.80;1.00
17178;DHT22;8704;52.006;4.374;2023-08-06T11:48:24;18.90;1.00
17178;DHT22;8704;52.006;4.374;2023-08-06T11:50:54;19.10;1.00
17178;DHT22;8704;52.006;4.374;2023-08-06T11:53:28;19.30;1.00
17178;DHT22;8704;52.006;4.374;2023-08-06T11:55:57;19.20;1.00
17178;DHT22;8704;52.006;4.374;2023-08-06T11:58:25;19.30;1.00
17178;DHT22;8704;52.006;4.374;2023-08-06T12:00:53;19.40;1.00
17178;DHT22;8704;52.006;4.374;2023-08-06T12:03:23;19.40;1.00
17178;DHT22;8704;52.006;4.374;2023-08-06T12:05:54;19.50;1.00
17178;DHT22;8704;52.006;4.374;2023-08-06T12:08:26;19.80;1.00
17178;DHT22;8704;52.006;4.374;2023-08-06T12:10:57;20.00;1.00
17178;DHT22;8704;52.006;4.374;2023-08-06T12:13:25;20.20;1.00
17178;DHT22;8704;52.006;4.374;2023-08-06T12:15:54;20.00;1.00
17178;DHT22;8704;52.006;4.374;2023-08-06T12:18:24;20.00;1.00
17178;DHT22;8704;52.006;4.374;2023-08-06T12:20:52;20.40;1.00
17178;DHT22;8704;52.006;4.374;2023-08-06T12:23:20;20.60;1.00
17178;DHT22;8704;52.006;4.374;2023-08-06T12:25:48;20.90;1.00
17178;DHT22;8704;52.006;4.374;2023-08-06T12:28:18;20.90;1.00
17178;DHT22;8704;52.006;4.374;2023-08-06T12:30:49;20.80;1.00
17178;DHT22;8704;52.006;4.374;2023-08-06T12:33:21;20.80;1.00
17178;DHT22;8704;52.006;4.374;2023-08-06T12:35:50;21.00;1.00
17178;DHT22;8704;52.006;4.374;2023-08-06T12:38:20;20.10;1.00
17178;DHT22;8704;52.006;4.374;2023-08-06T12:40:48;20.40;1.00
17178;DHT22;8704;52.006;4.374;2023-08-06T12:43:17;20.50;1.00
17178;DHT22;8704;52.006;4.374;2023-08-06T12:45:45;20.40;1.00
17178;DHT22;8704;52.006;4.374;2023-08-06T12:48:18;20.50;1.00
17178;DHT22;8704;52.006;4.374;2023-08-06T12:50:46;20.40;1.00
17178;DHT22;8704;52.006;4.374;2023-08-06T12:53:16;20.40;1.00
17178;DHT22;8704;52.006;4.374;2023-08-06T12:55:44;20.50;1.00
17178;DHT22;8704;52.006;4.374;2023-08-06T12:58:12;20.20;1.00
17178;DHT22;8704;52.006;4.374;2023-08-06T13:00:41;20.20;1.00
17178;DHT22;8704;52.006;4.374;2023-08-06T13:03:10;20.00;1.00
17178;DHT22;8704;52.006;4.374;2023-08-06T13:05:38;20.10;1.00
17178;DHT22;8704;52.006;4.374;2023-08-06T13:08:06;19.80;1.00
17178;DHT22;8704;52.006;4.374;2023-08-06T13:10:34;19.60;1.00
17178;DHT22;8704;52.006;4.374;2023-08-06T13:13:03;19.50;1.00
17178;DHT22;8704;52.006;4.374;2023-08-06T13:15:32;19.40;1.00
17178;DHT22;8704;52.006;4.374;2023-08-06T13:18:01;19.20;1.00
17178;DHT22;8704;52.006;4.374;2023-08-06T13:20:30;19.20;1.00
17178;DHT22;8704;52.006;4.374;2023-08-06T13:22:59;18.90;1.00
17178;DHT22;8704;52.006;4.374;2023-08-06T13:25:27;18.80;1.00
17178;DHT22;8704;52.006;4.374;2023-08-06T13:27:56;18.70;1.00
17178;DHT22;8704;52.006;4.374;2023-08-06T13:30:24;18.60;1.00
17178;DHT22;8704;52.006;4.374;2023-08-06T13:32:52;18.70;1.00
17178;DHT22;8704;52.006;4.374;2023-08-06T13:35:23;18.30;29.00
17178;DHT22;8704;52.006;4.374;2023-08-06T13:37:52;18.10;91.10
17178;DHT22;8704;52.006;4.374;2023-08-06T13:40:21;17.80;93.50
17178;DHT22;8704;52.006;4.374;2023-08-06T13:42:50;17.70;99.90
17178;DHT22;8704;52.006;4.374;2023-08-06T13:45:18;17.60;99.90
17178;DHT22;8704;52.006;4.374;2023-08-06T13:47:46;17.50;99.90
17178;DHT22;8704;52.006;4.374;2023-08-06T13:50:14;17.40;91.10
17178;DHT22;8704;52.006;4.374;2023-08-06T13:52:44;17.20;99.90
17178;DHT22;8704;52.006;4.374;2023-08-06T13:55:12;17.20;99.90
17178;DHT22;8704;52.006;4.374;2023-08-06T13:57:41;17.00;99.90
17178;DHT22;8704;52.006;4.374;2023-08-06T14:00:09;16.80;99.90
17178;DHT22;8704;52.006;4.374;2023-08-06T14:02:38;16.60;99.90
17178;DHT22;8704;52.006;4.374;2023-08-06T14:05:07;16.30;99.90
17178;DHT22;8704;52.006;4.374;2023-08-06T14:07:35;16.20;99.90
17178;DHT22;8704;52.006;4.374;2023-08-06T14:10:06;16.20;99.90
17178;DHT22;8704;52.006;4.374;2023-08-06T14:12:36;16.30;99.90
17178;DHT22;8704;52.006;4.374;2023-08-06T14:15:04;16.30;99.90
17178;DHT22;8704;52.006;4.374;2023-08-06T14:17:32;16.20;99.90
17178;DHT22;8704;52.006;4.374;2023-08-06T14:20:01;16.20;99.90
17178;DHT22;8704;52.006;4.374;2023-08-06T14:22:31;16.20;99.90
17178;DHT22;8704;52.006;4.374;2023-08-06T14:24:59;16.20;99.90
17178;DHT22;8704;52.006;4.374;2023-08-06T14:27:29;16.10;99.90
17178;DHT22;8704;52.006;4.374;2023-08-06T14:29:57;16.10;99.90
17178;DHT22;8704;52.006;4.374;2023-08-06T14:32:25;16.10;99.90
17178;DHT22;8704;52.006;4.374;2023-08-06T14:34:53;16.20;99.90
17178;DHT22;8704;52.006;4.374;2023-08-06T14:37:21;16.10;99.90
17178;DHT22;8704;52.006;4.374;2023-08-06T14:39:50;16.20;99.90
17178;DHT22;8704;52.006;4.374;2023-08-06T14:42:18;16.30;99.90
17178;DHT22;8704;52.006;4.374;2023-08-06T14:44:47;16.30;99.90
17178;DHT22;8704;52.006;4.374;2023-08-06T14:47:15;16.30;99.90
17178;DHT22;8704;52.006;4.374;2023-08-06T14:49:43;16.40;99.90
17178;DHT22;8704;52.006;4.374;2023-08-06T14:52:12;16.40;99.90
17178;DHT22;8704;52.006;4.374;2023-08-06T14:54:40;16.30;99.90
17178;DHT22;8704;52.006;4.374;2023-08-06T14:57:09;16.30;99.90
17178;DHT22;8704;52.006;4.374;2023-08-06T14:59:37;16.20;99.90
17178;DHT22;8704;52.006;4.374;2023-08-06T15:02:07;16.20;99.90
17178;DHT22;8704;52.006;4.374;2023-08-06T15:04:35;16.20;99.90
17178;DHT22;8704;52.006;4.374;2023-08-06T15:07:03;16.10;99.90
17178;DHT22;8704;52.006;4.374;2023-08-06T15:09:32;16.10;99.90
17178;DHT22;8704;52.006;4.374;2023-08-06T15:12:20;16.10;99.90
17178;DHT22;8704;52.006;4.374;2023-08-06T15:14:48;16.20;99.90
17178;DHT22;8704;52.006;4.374;2023-08-06T15:17:17;16.10;99.90
17178;DHT22;8704;52.006;4.374;2023-08-06T15:19:45;16.20;99.90
17178;DHT22;8704;52.006;4.374;2023-08-06T15:22:13;16.20;99.90
17178;DHT22;8704;52.006;4.374;2023-08-06T15:24:42;16.30;99.90
17178;DHT22;8704;52.006;4.374;2023-08-06T15:27:10;16.30;97.40
17178;DHT22;8704;52.006;4.374;2023-08-06T15:29:39;16.20;99.90
17178;DHT22;8704;52.006;4.374;2023-08-06T15:32:07;16.00;99.90
17178;DHT22;8704;52.006;4.374;2023-08-06T15:34:36;15.90;99.90
17178;DHT22;8704;52.006;4.374;2023-08-06T15:37:04;15.80;99.90
17178;DHT22;8704;52.006;4.374;2023-08-06T15:39:34;15.70;99.90
17178;DHT22;8704;52.006;4.374;2023-08-06T15:42:02;15.70;99.90
17178;DHT22;8704;52.006;4.374;2023-08-06T15:44:30;15.70;99.90
17178;DHT22;8704;52.006;4.374;2023-08-06T15:46:59;15.70;99.90
17178;DHT22;8704;52.006;4.374;2023-08-06T15:49:27;15.70;99.90
17178;DHT22;8704;52.006;4.374;2023-08-06T15:51:57;15.80;99.90
17178;DHT22;8704;52.006;4.374;2023-08-06T15:54:25;15.70;99.90
17178;DHT22;8704;52.006;4.374;2023-08-06T15:56:53;15.80;99.90
17178;DHT22;8704;52.006;4.374;2023-08-06T15:59:23;15.80;99.90
17178;DHT22;8704;52.006;4.374;2023-08-06T16:01:52;15.90;99.90
17178;DHT22;8704;52.006;4.374;2023-08-06T16:04:20;15.90;99.90
17178;DHT22;8704;52.006;4.374;2023-08-06T16:06:49;16.00;92.70